Time;durP1;ratioP1;P1;durP2;ratioP2;P2;SDS_P1;SDS_P2;PMS_P1;PMS_P2;Temp;Humidity;BMP_temperature;BMP_pressure;BME280_temperature;BME280_humidity;BME280_pressure;Samples;Min_cycle;Max_cycle;Signal;HPM_P1;HPM_P2
2023/12/10 00:01:56;;;;;;;0.00;0.00;;;;;;;7.95;86.87;99274.53;4913445;29;20150;-76
2023/12/10 00:04:21;;;;;;;0.00;0.00;;;;;;;7.69;87.23;99244.66;4928903;29;20126;-75
2023/12/10 00:06:47;;;;;;;0.00;0.00;;;;;;;7.89;87.63;99276.47;4918745;29;20494;-76
2023/12/10 00:09:13;;;;;;;0.00;0.00;;;;;;;7.87;87.29;99281.38;4937295;28;20463;-77
2023/12/10 00:11:38;;;;;;;0.00;0.00;;;;;;;7.98;87.95;99293.03;4916062;29;20087;-77
2023/12/10 00:14:06;;;;;;;0.00;0.00;;;;;;;7.86;89.42;99275.09;4901786;29;20035;-77
2023/12/10 00:16:31;;;;;;;0.00;0.00;;;;;;;7.93;89.40;99273.97;4929703;29;20082;-77
2023/12/10 00:19:00;;;;;;;0.00;0.00;;;;;;;7.80;89.43;99273.47;4892780;29;20036;-76
2023/12/10 00:21:25;;;;;;;0.00;0.00;;;;;;;7.96;89.86;99295.25;4922095;29;20027;-76
2023/12/10 00:23:51;;;;;;;0.00;0.00;;;;;;;8.07;90.22;99329.50;4924635;29;20462;-77
2023/12/10 00:26:24;;;;;;;0.10;0.10;;;;;;;7.74;89.78;99288.19;4912461;29;20032;-77
2023/12/10 00:28:49;;;;;;;0.00;0.00;;;;;;;7.71;90.34;99299.63;4917957;28;20140;-74
2023/12/10 00:31:17;;;;;;;0.00;0.00;;;;;;;7.77;91.53;99308.59;4901210;29;20630;-76
2023/12/10 00:33:52;;;;;;;0.00;0.00;;;;;;;7.57;91.28;99290.41;4921078;29;20024;-76
2023/12/10 00:36:18;;;;;;;0.00;0.00;;;;;;;7.55;91.53;99298.00;4925346;29;20035;-77
2023/12/10 00:38:55;;;;;;;;;;;;;;;;;;;;;
2023/12/10 00:44:11;;;;;;;0.00;0.00;;;;;;;7.29;92.55;99295.31;4916342;29;20036;-75
2023/12/10 00:46:36;;;;;;;0.00;0.00;;;;;;;7.44;93.31;99330.66;4930237;28;20032;-76
2023/12/10 00:49:15;;;;;;;;;;;;;;;;;;;;;
2023/12/10 00:51:40;;;;;;;0.00;0.00;;;;;;;7.39;93.62;99336.09;4909729;29;20039;-76
2023/12/10 00:54:16;;;;;;;0.00;0.00;;;;;;;7.32;93.82;99311.88;4918096;29;20123;-77
2023/12/10 00:57:12;;;;;;;0.00;0.00;;;;;;;7.38;93.98;99296.38;4922939;29;20031;-78
2023/12/10 00:59:48;;;;;;;0.00;0.00;;;;;;;7.70;92.65;99319.78;4914517;29;20032;-78
2023/12/10 01:02:28;;;;;;;0.00;0.00;;;;;;;7.81;91.31;99307.78;4922753;29;21329;-77
2023/12/10 01:05:01;;;;;;;0.00;0.00;;;;;;;7.97;90.48;99334.97;4916826;29;20063;-77
2023/12/10 01:07:30;;;;;;;0.03;0.03;;;;;;;7.95;89.87;99334.44;4936176;28;20059;-78
2023/12/10 01:09:55;;;;;;;0.00;0.00;;;;;;;7.85;90.20;99336.06;4929361;29;20051;-77
2023/12/10 01:12:21;;;;;;;0.00;0.00;;;;;;;7.97;90.65;99367.63;4908560;29;20070;-76
2023/12/10 01:14:46;;;;;;;0.00;0.00;;;;;;;7.90;90.63;99377.97;4889088;29;20038;-76
2023/12/10 01:17:15;;;;;;;0.03;0.03;;;;;;;7.59;91.67;99365.19;4921826;29;20670;-75
2023/12/10 01:19:45;;;;;;;0.00;0.00;;;;;;;7.53;92.86;99366.28;4913622;29;20028;-78
2023/12/10 01:22:21;;;;;;;0.00;0.00;;;;;;;7.48;93.04;99369.81;4921717;29;20126;-77
2023/12/10 01:24:47;;;;;;;0.00;0.00;;;;;;;7.41;94.06;99372.00;4923853;29;20047;-77
2023/12/10 01:27:12;;;;;;;0.00;0.00;;;;;;;7.64;94.63;99397.06;4922599;29;20023;-77
2023/12/10 01:29:40;;;;;;;0.00;0.00;;;;;;;7.53;95.01;99374.44;4927328;29;20159;-77
2023/12/10 01:32:10;;;;;;;0.00;0.00;;;;;;;7.59;94.99;99386.97;4930353;29;20027;-76
2023/12/10 01:34:35;;;;;;;0.00;0.00;;;;;;;7.53;95.64;99381.81;4920452;29;21093;-77
2023/12/10 01:37:01;;;;;;;0.00;0.00;;;;;;;7.51;96.76;99382.88;4921897;29;20055;-78
2023/12/10 01:39:27;;;;;;;0.00;0.00;;;;;;;7.43;97.48;99367.13;4902583;29;20497;-77
2023/12/10 01:41:52;;;;;;;0.00;0.00;;;;;;;7.39;98.06;99390.50;4912067;29;20028;-77
2023/12/10 01:44:23;;;;;;;0.00;0.00;;;;;;;7.45;98.98;99394.06;4918377;29;20036;-77
2023/12/10 01:46:49;;;;;;;0.00;0.00;;;;;;;7.42;100.00;99403.56;4887149;29;20481;-77
2023/12/10 01:49:55;;;;;;;0.00;0.00;;;;;;;7.47;100.00;99430.75;4910180;29;20122;-76
2023/12/10 01:52:22;;;;;;;0.00;0.00;;;;;;;7.40;100.00;99411.16;4922156;29;20034;-76
2023/12/10 01:54:49;;;;;;;0.00;0.00;;;;;;;7.23;100.00;99391.53;4923061;29;20498;-77
2023/12/10 01:57:21;;;;;;;0.00;0.00;;;;;;;7.42;100.00;99444.38;4884326;28;20111;-77
2023/12/10 01:59:50;;;;;;;0.00;0.00;;;;;;;7.38;100.00;99448.69;4921058;29;20064;-76
2023/12/10 02:02:28;;;;;;;0.00;0.00;;;;;;;7.16;100.00;99408.13;4919466;29;20115;-75
2023/12/10 02:05:11;;;;;;;0.00;0.00;;;;;;;7.16;100.00;99402.69;4900424;29;20474;-76
2023/12/10 02:07:46;;;;;;;0.00;0.00;;;;;;;7.33;100.00;99449.50;4910849;29;20419;-79
2023/12/10 02:10:12;;;;;;;0.00;0.00;;;;;;;7.12;100.00;99440.47;4923499;29;20549;-77
2023/12/10 02:13:10;;;;;;;0.00;0.00;;;;;;;7.24;100.00;99464.72;4917585;29;20073;-78
2023/12/10 02:15:42;;;;;;;0.00;0.00;;;;;;;7.21;100.00;99459.78;4924294;29;20024;-77
2023/12/10 02:18:35;;;;;;;0.00;0.00;;;;;;;7.15;100.00;99453.56;4929561;28;20040;-78
2023/12/10 02:21:10;;;;;;;0.00;0.00;;;;;;;7.14;100.00;99460.06;4923015;29;20050;-77
2023/12/10 02:24:12;;;;;;;0.00;0.00;;;;;;;7.35;100.00;99498.19;4921888;29;20048;-78
2023/12/10 02:26:42;;;;;;;0.00;0.00;;;;;;;7.12;100.00;99451.34;4924663;29;20027;-78
2023/12/10 02:29:08;;;;;;;0.00;0.00;;;;;;;7.27;100.00;99485.09;4923287;28;20048;-77
2023/12/10 02:32:09;;;;;;;0.00;0.00;;;;;;;7.50;100.00;99484.66;4924348;29;20379;-75
2023/12/10 02:34:25;;;;;;;0.00;0.00;;;;;;;7.61;100.00;99471.06;4910671;29;20451;-77
2023/12/10 02:36:51;;;;;;;0.00;0.00;;;;;;;7.94;100.00;99507.00;4914085;29;20036;-75
2023/12/10 02:39:28;;;;;;;0.00;0.00;;;;;;;7.75;100.00;99474.88;4933004;28;20138;-75
2023/12/10 02:42:02;;;;;;;0.00;0.00;;;;;;;7.62;100.00;99491.72;4919697;29;20028;-75
2023/12/10 02:44:44;;;;;;;0.00;0.00;;;;;;;7.46;100.00;99480.81;4910120;29;20054;-77
2023/12/10 02:47:12;;;;;;;0.00;0.00;;;;;;;7.15;100.00;99460.88;4910568;29;20047;-74
2023/12/10 02:49:37;;;;;;;0.00;0.00;;;;;;;7.26;100.00;99488.94;4916736;29;20032;-76
2023/12/10 02:52:03;;;;;;;0.00;0.00;;;;;;;7.23;100.00;99489.44;4909424;29;20193;-76
2023/12/10 02:54:31;;;;;;;0.00;0.00;;;;;;;7.23;100.00;99478.56;4914473;28;20058;-76
2023/12/10 02:56:56;;;;;;;0.00;0.00;;;;;;;7.36;100.00;99488.97;4917806;29;20032;-76
2023/12/10 02:59:22;;;;;;;0.00;0.00;;;;;;;7.27;100.00;99490.53;4907558;29;20034;-77
2023/12/10 03:01:47;;;;;;;0.00;0.00;;;;;;;7.32;100.00;99504.19;4920035;29;20100;-76
2023/12/10 03:04:13;;;;;;;0.00;0.00;;;;;;;7.18;100.00;99497.59;4921932;29;20024;-77
2023/12/10 03:06:41;;;;;;;0.00;0.00;;;;;;;7.00;100.00;99475.22;4924995;29;20050;-76
2023/12/10 03:09:14;;;;;;;0.00;0.00;;;;;;;6.73;100.00;99459.91;4906883;29;20116;-74
2023/12/10 03:11:50;;;;;;;0.00;0.00;;;;;;;6.89;100.00;99493.41;4926088;29;20028;-77
2023/12/10 03:14:31;;;;;;;0.00;0.00;;;;;;;6.74;100.00;99483.25;4941083;28;20058;-77
2023/12/10 03:16:56;;;;;;;0.00;0.00;;;;;;;6.86;100.00;99506.69;4933525;28;20036;-76
2023/12/10 03:19:29;;;;;;;0.00;0.00;;;;;;;6.86;100.00;99512.13;4912824;29;20027;-76
2023/12/10 03:22:08;;;;;;;0.00;0.00;;;;;;;6.74;100.00;99505.00;4923225;29;20126;-75
2023/12/10 03:24:36;;;;;;;0.00;0.00;;;;;;;6.89;100.00;99527.91;4905110;29;20110;-75
2023/12/10 03:27:01;;;;;;;0.00;0.00;;;;;;;6.97;100.00;99551.88;4888070;29;20039;-75
2023/12/10 03:29:27;;;;;;;0.00;0.00;;;;;;;6.79;100.00;99526.78;4902349;29;21720;-74
2023/12/10 03:31:55;;;;;;;0.00;0.00;;;;;;;6.87;100.00;99536.31;4932409;29;20631;-75
2023/12/10 03:34:21;;;;;;;0.00;0.00;;;;;;;7.02;100.00;99551.06;4919776;29;20023;-74
2023/12/10 03:36:49;;;;;;;0.00;0.00;;;;;;;7.25;100.00;99549.84;4896712;29;20036;-75
2023/12/10 03:39:14;;;;;;;0.00;0.00;;;;;;;7.55;100.00;99572.78;4908921;29;20047;-74
2023/12/10 03:41:40;;;;;;;0.00;0.00;;;;;;;7.62;100.00;99562.47;4921740;29;20379;-75
2023/12/10 03:44:05;;;;;;;0.00;0.00;;;;;;;7.61;100.00;99544.53;4926566;29;20061;-75
2023/12/10 03:46:31;;;;;;;0.00;0.00;;;;;;;7.92;100.00;99572.63;4917017;29;20039;-75
2023/12/10 03:48:58;;;;;;;0.00;0.00;;;;;;;7.78;100.00;99539.69;4909719;29;20176;-75
2023/12/10 03:51:24;;;;;;;0.00;0.00;;;;;;;7.94;100.00;99553.28;4907055;29;20229;-75
2023/12/10 03:53:52;;;;;;;0.00;0.00;;;;;;;7.88;100.00;99554.38;4910942;29;20140;-75
2023/12/10 03:56:20;;;;;;;0.00;0.00;;;;;;;7.85;100.00;99544.84;4906865;29;20515;-74
2023/12/10 03:58:45;;;;;;;0.00;0.00;;;;;;;7.90;100.00;99563.09;4899487;29;20384;-77
2023/12/10 04:01:17;;;;;;;0.00;0.00;;;;;;;7.91;100.00;99553.84;4923295;29;20031;-76
2023/12/10 04:03:42;;;;;;;0.00;0.00;;;;;;;7.85;100.00;99550.28;4916470;29;20079;-75
2023/12/10 04:06:08;;;;;;;0.00;0.00;;;;;;;7.81;100.00;99544.56;4933976;28;20115;-76
2023/12/10 04:08:36;;;;;;;0.00;0.00;;;;;;;7.96;100.00;99553.88;4905086;29;20050;-76
2023/12/10 04:12:06;;;;;;;0.00;0.00;;;;;;;7.78;100.00;99515.19;4893010;29;20479;-76
2023/12/10 04:14:30;;;;;;;0.00;0.00;;;;;;;7.80;100.00;99504.84;4882115;29;20045;-76
2023/12/10 04:16:56;;;;;;;0.00;0.00;;;;;;;7.92;100.00;99522.81;4911850;29;20028;-76
2023/12/10 04:19:24;;;;;;;0.00;0.00;;;;;;;8.08;100.00;99535.34;4915551;29;20082;-75
2023/12/10 04:21:51;;;;;;;0.00;0.00;;;;;;;8.02;100.00;99515.47;4919796;29;20036;-75
2023/12/10 04:24:17;;;;;;;0.00;0.00;;;;;;;8.01;100.00;99489.31;4926409;29;20087;-76
2023/12/10 04:26:50;;;;;;;0.00;0.00;;;;;;;8.03;100.00;99481.72;4912724;29;20102;-76
2023/12/10 04:29:24;;;;;;;0.00;0.00;;;;;;;8.00;100.00;99498.59;4909881;29;20118;-76
2023/12/10 04:32:31;;;;;;;;;;;;;;;;;;;;;
2023/12/10 04:34:43;;;;;;;0.00;0.00;;;;;;;7.88;100.00;99459.91;4905473;29;20498;-75
2023/12/10 04:37:11;;;;;;;0.00;0.00;;;;;;;8.02;100.00;99506.50;4927094;29;20031;-75
2023/12/10 04:39:37;;;;;;;0.00;0.00;;;;;;;8.00;100.00;99504.03;4905527;29;21292;-75
2023/12/10 04:42:03;;;;;;;0.00;0.00;;;;;;;8.18;100.00;99521.72;4910485;29;20489;-74
2023/12/10 04:44:28;;;;;;;0.00;0.00;;;;;;;8.09;100.00;99495.31;4915095;29;20028;-74
2023/12/10 04:46:54;;;;;;;0.00;0.00;;;;;;;8.06;100.00;99521.19;4933725;29;20039;-75
2023/12/10 04:49:22;;;;;;;0.00;0.00;;;;;;;7.99;100.00;99498.88;4925402;29;20023;-75
2023/12/10 04:51:47;;;;;;;0.00;0.00;;;;;;;8.00;100.00;99508.66;4931533;29;20039;-74
2023/12/10 04:54:12;;;;;;;0.00;0.00;;;;;;;8.15;100.00;99500.50;4901028;29;20019;-75
2023/12/10 04:56:45;;;;;;;0.00;0.00;;;;;;;8.10;100.00;99459.63;4925004;29;20044;-76
2023/12/10 04:59:13;;;;;;;0.00;0.00;;;;;;;8.25;100.00;99498.84;4935009;28;20091;-74
2023/12/10 05:01:48;;;;;;;0.00;0.00;;;;;;;8.31;100.00;99492.31;4920800;29;20024;-76
2023/12/10 05:04:18;;;;;;;0.10;0.10;;;;;;;8.35;100.00;99494.22;4905498;29;20086;-76
2023/12/10 05:06:43;;;;;;;0.00;0.00;;;;;;;8.36;100.00;99478.69;4903382;29;20439;-78
2023/12/10 05:09:10;;;;;;;0.00;0.00;;;;;;;8.37;100.00;99459.34;4912158;29;20036;-79
2023/12/10 05:12:36;;;;;;;0.00;0.00;;;;;;;8.22;100.00;99443.03;4925058;29;20028;-80
2023/12/10 05:15:02;;;;;;;0.00;0.00;;;;;;;8.26;100.00;99444.09;4937710;28;20368;-76
2023/12/10 05:17:28;;;;;;;0.00;0.00;;;;;;;8.46;100.00;99459.63;4923257;29;20059;-77
2023/12/10 05:19:53;;;;;;;0.00;0.00;;;;;;;8.61;100.00;99491.47;4920924;29;20020;-77
2023/12/10 05:22:20;;;;;;;0.00;0.00;;;;;;;8.48;100.00;99475.69;4906030;29;20746;-76
2023/12/10 05:24:45;;;;;;;0.00;0.00;;;;;;;8.57;100.00;99484.94;4908601;29;20503;-76
2023/12/10 05:27:11;;;;;;;0.00;0.00;;;;;;;8.50;100.00;99474.34;4913966;28;20032;-77
2023/12/10 05:29:38;;;;;;;0.00;0.00;;;;;;;8.60;100.00;99483.59;4917214;29;20368;-76
2023/12/10 05:32:21;;;;;;;0.00;0.00;;;;;;;8.54;100.00;99480.03;4924483;28;20046;-77
2023/12/10 05:34:51;;;;;;;0.00;0.00;;;;;;;8.49;100.00;99467.25;4917404;29;20408;-76
2023/12/10 05:37:16;;;;;;;0.00;0.00;;;;;;;8.55;100.00;99474.31;4908022;29;20443;-75
2023/12/10 05:39:54;;;;;;;0.00;0.00;;;;;;;8.47;100.00;99464.00;4900685;29;20119;-76
2023/12/10 05:42:19;;;;;;;0.10;0.10;;;;;;;8.36;100.00;99451.44;4895259;29;20531;-77
2023/12/10 05:44:45;;;;;;;0.00;0.00;;;;;;;8.44;100.00;99463.69;4928517;29;20119;-76
2023/12/10 05:47:10;;;;;;;0.00;0.00;;;;;;;8.35;100.00;99439.75;4919527;29;20024;-75
2023/12/10 05:49:36;;;;;;;0.00;0.00;;;;;;;8.53;100.00;99467.53;4932533;28;20119;-76
2023/12/10 05:52:03;;;;;;;0.05;0.05;;;;;;;8.49;100.00;99461.81;4922199;29;20032;-76
2023/12/10 05:54:40;;;;;;;0.00;0.00;;;;;;;8.44;100.00;99453.66;4921647;29;20111;-76
2023/12/10 05:57:05;;;;;;;0.00;0.00;;;;;;;8.48;100.00;99453.91;4909614;29;20048;-76
2023/12/10 05:59:35;;;;;;;0.00;0.00;;;;;;;8.30;100.00;99436.22;4908689;29;20028;-76
2023/12/10 06:02:03;;;;;;;0.00;0.00;;;;;;;8.15;100.00;99421.53;4929553;29;20028;-76
2023/12/10 06:04:31;;;;;;;0.00;0.00;;;;;;;8.20;100.00;99421.50;4917802;29;20047;-77
2023/12/10 06:06:57;;;;;;;0.10;0.10;;;;;;;8.52;100.00;99472.16;4923337;29;20147;-75
2023/12/10 06:09:22;;;;;;;0.00;0.00;;;;;;;8.31;100.00;99437.81;4920189;29;20036;-75
2023/12/10 06:12:15;;;;;;;0.00;0.00;;;;;;;8.41;100.00;99453.34;4906509;29;20072;-75
2023/12/10 06:14:40;;;;;;;0.00;0.00;;;;;;;8.20;100.00;99426.16;4925405;29;20027;-78
2023/12/10 06:17:08;;;;;;;0.00;0.00;;;;;;;8.13;100.00;99431.88;4912383;29;20020;-75
2023/12/10 06:19:33;;;;;;;0.00;0.00;;;;;;;8.08;100.00;99431.88;4926145;29;20074;-74
2023/12/10 06:21:59;;;;;;;0.00;0.00;;;;;;;8.08;100.00;99436.50;4907920;29;20506;-74
2023/12/10 06:24:24;;;;;;;0.00;0.00;;;;;;;7.93;100.00;99423.72;4895265;29;20587;-76
2023/12/10 06:26:52;;;;;;;0.00;0.00;;;;;;;7.79;100.00;99418.81;4919551;29;20035;-75
2023/12/10 06:29:20;;;;;;;0.00;0.00;;;;;;;7.72;100.00;99415.53;4904477;29;20108;-77
2023/12/10 06:31:45;;;;;;;0.00;0.00;;;;;;;7.71;100.00;99402.22;4882385;29;20055;-76
2023/12/10 06:34:11;;;;;;;0.00;0.00;;;;;;;7.64;100.00;99405.22;4925355;28;20068;-75
2023/12/10 06:36:38;;;;;;;0.08;0.08;;;;;;;7.62;100.00;99405.50;4915256;29;20571;-74
2023/12/10 06:39:07;;;;;;;0.00;0.00;;;;;;;7.84;100.00;99429.72;4893430;29;20028;-75
2023/12/10 06:41:32;;;;;;;0.00;0.00;;;;;;;7.70;100.00;99395.97;4914056;29;20036;-75
2023/12/10 06:43:57;;;;;;;0.10;0.10;;;;;;;7.74;100.00;99397.06;4921683;29;20032;-77
2023/12/10 06:46:23;;;;;;;0.00;0.00;;;;;;;7.90;100.00;99410.66;4915000;29;20054;-77
2023/12/10 06:48:51;;;;;;;0.00;0.00;;;;;;;7.75;100.00;99395.94;4918732;29;20107;-77
2023/12/10 06:51:34;;;;;;;0.00;0.00;;;;;;;7.63;100.00;99384.53;4927495;29;20031;-76
2023/12/10 06:53:59;;;;;;;0.00;0.00;;;;;;;7.61;100.00;99370.41;4923946;29;20364;-76
2023/12/10 06:56:27;;;;;;;0.00;0.00;;;;;;;7.56;100.00;99362.22;4908243;29;20043;-76
2023/12/10 06:59:01;;;;;;;0.00;0.00;;;;;;;7.59;100.00;99378.81;4916838;29;20034;-77
2023/12/10 07:01:26;;;;;;;0.00;0.00;;;;;;;7.37;100.00;99349.16;4906581;29;21139;-78
2023/12/10 07:03:53;;;;;;;0.00;0.00;;;;;;;7.22;100.00;99330.91;4900364;29;20063;-76
2023/12/10 07:09:56;;;;;;;0.00;0.00;;;;;;;7.52;100.00;99372.84;4916985;29;20507;-76
2023/12/10 07:12:22;;;;;;;0.00;0.00;;;;;;;7.42;100.00;99357.31;4910513;29;20442;-75
2023/12/10 07:14:47;;;;;;;0.00;0.00;;;;;;;7.56;100.00;99383.97;4929718;29;20039;-75
2023/12/10 07:17:14;;;;;;;0.00;0.00;;;;;;;7.25;100.00;99324.94;4926176;29;20019;-74
2023/12/10 07:19:39;;;;;;;0.00;0.00;;;;;;;7.42;100.00;99349.16;4918124;29;20040;-77
2023/12/10 07:22:13;;;;;;;0.00;0.00;;;;;;;7.53;100.00;99374.44;4925387;29;20022;-75
2023/12/10 07:24:49;;;;;;;0.00;0.00;;;;;;;7.27;100.00;99328.22;4915341;29;20019;-77
2023/12/10 07:27:19;;;;;;;0.00;0.00;;;;;;;7.32;100.00;99346.44;4926764;28;21474;-75
2023/12/10 07:30:02;;;;;;;0.00;0.00;;;;;;;7.55;100.00;99361.41;4922250;29;20036;-78
2023/12/10 07:32:33;;;;;;;0.00;0.00;;;;;;;7.54;100.00;99321.69;4924912;28;20024;-77
2023/12/10 07:35:04;;;;;;;0.00;0.00;;;;;;;7.91;100.00;99358.66;4916587;29;20028;-76
2023/12/10 07:37:35;;;;;;;0.00;0.00;;;;;;;7.92;100.00;99338.50;4899381;29;20028;-76
2023/12/10 07:40:14;;;;;;;0.00;0.00;;;;;;;8.04;100.00;99336.31;4901802;29;20059;-75
2023/12/10 07:42:42;;;;;;;0.00;0.00;;;;;;;7.99;100.00;99302.84;4905314;29;20036;-76
2023/12/10 07:45:08;;;;;;;0.00;0.00;;;;;;;8.11;100.00;99316.97;4905819;29;20031;-76
2023/12/10 07:47:36;;;;;;;0.00;0.00;;;;;;;8.20;100.00;99342.53;4914643;29;20443;-81
2023/12/10 07:50:16;;;;;;;0.00;0.00;;;;;;;8.10;100.00;99312.59;4929681;29;20086;-77
2023/12/10 07:52:49;;;;;;;0.00;0.00;;;;;;;8.25;100.00;99324.53;4907205;29;20038;-76
2023/12/10 07:55:15;;;;;;;0.00;0.00;;;;;;;8.03;100.00;99288.41;4915659;29;20153;-78
2023/12/10 07:57:50;;;;;;;0.00;0.00;;;;;;;8.05;100.00;99277.22;4926720;29;20077;-76
2023/12/10 08:00:40;;;;;;;0.00;0.00;;;;;;;8.05;100.00;99263.63;4929538;29;20024;-77
2023/12/10 08:03:05;;;;;;;0.00;0.00;;;;;;;8.25;100.00;99275.50;4916142;29;20035;-78
2023/12/10 08:05:33;;;;;;;0.00;0.00;;;;;;;8.40;100.00;99283.63;4925115;29;20023;-78
2023/12/10 08:08:08;;;;;;;0.00;0.00;;;;;;;8.47;100.00;99272.44;4910677;29;20032;-78
2023/12/10 08:10:37;;;;;;;0.00;0.00;;;;;;;8.33;100.00;99240.34;4927496;29;20387;-78
2023/12/10 08:20:14;;;;;;;0.00;0.00;;;;;;;8.44;100.00;99223.94;4880901;29;20041;-78
2023/12/10 08:22:39;;;;;;;0.00;0.00;;;;;;;8.60;100.00;99228.25;4873050;29;20540;-80
2023/12/10 08:25:05;;;;;;;0.00;0.00;;;;;;;8.98;100.00;99276.78;4914722;29;20036;-77
2023/12/10 08:27:40;;;;;;;0.00;0.00;;;;;;;8.98;100.00;99279.50;4916415;28;20059;-77
2023/12/10 08:30:52;;;;;;;0.00;0.00;;;;;;;8.84;100.00;99239.25;4917782;29;20070;-79
2023/12/10 08:33:37;;;;;;;0.00;0.00;;;;;;;8.94;100.00;99232.13;4919197;29;20028;-77
2023/12/10 08:38:59;;;;;;;0.00;0.00;;;;;;;8.99;100.00;99207.53;4925528;29;19915;-78
2023/12/10 08:41:24;;;;;;;0.00;0.00;;;;;;;9.38;100.00;99277.56;4925757;29;20059;-77
2023/12/10 08:44:00;;;;;;;0.00;0.00;;;;;;;9.07;100.00;99212.38;4923571;29;20067;-77
2023/12/10 08:46:33;;;;;;;0.00;0.00;;;;;;;9.37;100.00;99245.94;4926600;29;20032;-77
2023/12/10 08:49:19;;;;;;;;;;;;;;;;;;;;;
2023/12/10 08:54:38;;;;;;;0.10;0.10;;;;;;;9.32;100.00;99219.50;4918530;29;20069;-79
2023/12/10 08:57:15;;;;;;;0.00;0.00;;;;;;;9.53;100.00;99236.47;4937321;29;20028;-78
2023/12/10 08:59:44;;;;;;;0.00;0.00;;;;;;;9.22;100.00;99168.59;4938746;29;20486;-78
2023/12/10 09:02:54;;;;;;;;;;;;;;;;;;;;;
2023/12/10 09:05:33;;;;;;;0.00;0.00;;;;;;;9.56;100.00;99167.72;4843602;29;20094;-79
2023/12/10 09:08:15;;;;;;;0.00;0.00;;;;;;;9.46;100.00;99135.03;4818182;29;20030;-78
2023/12/10 09:11:05;;;;;;;;;;;;;;;;;;;;;
2023/12/10 09:13:42;;;;;;;0.00;0.00;;;;;;;9.57;100.00;99177.50;4917731;29;20020;-75
2023/12/10 09:20:17;;;;;;;0.00;0.00;;;;;;;9.34;100.00;99129.19;4927214;29;20031;-77
2023/12/10 09:22:43;;;;;;;0.00;0.00;;;;;;;9.50;100.00;99151.66;4899033;28;20036;-77
2023/12/10 09:25:09;;;;;;;0.00;0.00;;;;;;;9.56;100.00;99156.78;4931646;29;20156;-77
2023/12/10 09:27:36;;;;;;;0.00;0.00;;;;;;;9.20;100.00;99082.69;4926023;29;20493;-77
2023/12/10 09:30:02;;;;;;;0.00;0.00;;;;;;;9.43;100.00;99114.63;4927568;29;20020;-77
2023/12/10 09:32:29;;;;;;;0.00;0.00;;;;;;;9.36;100.00;99095.06;4926207;29;20054;-76
2023/12/10 09:34:57;;;;;;;0.00;0.00;;;;;;;9.32;100.00;99120.50;4923812;29;20032;-76
2023/12/10 09:37:22;;;;;;;0.00;0.00;;;;;;;9.16;100.00;99125.28;4931656;29;20031;-79
2023/12/10 09:39:48;;;;;;;0.00;0.00;;;;;;;8.91;100.00;99081.63;4934475;28;20490;-78
2023/12/10 09:42:18;;;;;;;0.00;0.00;;;;;;;8.88;100.00;99109.47;4929040;29;20023;-77
2023/12/10 09:45:13;;;;;;;0.00;0.00;;;;;;;8.67;100.00;99070.69;4916907;29;20031;-78
2023/12/10 09:47:51;;;;;;;;;;;;;;;8.93;100.00;99103.13;4941661;28;20095;-78
2023/12/10 09:50:35;;;;;;;0.00;0.00;;;;;;;8.87;100.00;99085.22;4924629;29;19911;-77
2023/12/10 09:53:13;;;;;;;0.00;0.00;;;;;;;8.61;100.00;99041.03;4929163;29;20043;-79
2023/12/10 09:55:48;;;;;;;;;;;;;;;;;;;;;
2023/12/10 09:58:23;;;;;;;0.00;0.00;;;;;;;8.71;100.00;99051.84;4920059;29;20023;-77
2023/12/10 10:00:59;;;;;;;;;;;;;;;;;;;;;
2023/12/10 10:03:43;;;;;;;0.00;0.00;;;;;;;8.95;100.00;99078.31;4924425;29;20024;-78
2023/12/10 10:06:08;;;;;;;0.00;0.00;;;;;;;8.87;100.00;99053.31;4925009;29;20111;-79
2023/12/10 10:08:43;;;;;;;0.00;0.00;;;;;;;8.83;100.00;99057.69;4917901;29;20055;-79
2023/12/10 10:11:09;;;;;;;0.00;0.00;;;;;;;8.85;100.00;99044.63;4931670;29;20039;-77
2023/12/10 10:13:34;;;;;;;0.00;0.00;;;;;;;8.93;100.00;99034.19;4937845;29;20024;-79
2023/12/10 10:16:24;;;;;;;0.00;0.00;;;;;;;8.86;100.00;99013.53;4928037;29;20032;-78
2023/12/10 10:19:13;;;;;;;0.00;0.00;;;;;;;8.70;100.00;98957.53;4910106;28;20032;-78
2023/12/10 10:21:58;;;;;;;0.00;0.00;;;;;;;9.09;100.00;99011.88;4902253;29;20032;-80
2023/12/10 10:24:35;;;;;;;0.00;0.00;;;;;;;9.04;100.00;98981.16;4927700;29;20036;-79
2023/12/10 10:27:04;;;;;;;0.00;0.00;;;;;;;9.00;100.00;98959.09;4918293;29;20071;-79
2023/12/10 10:30:14;;;;;;;0.00;0.00;;;;;;;9.19;100.00;98993.78;4926768;29;20127;-79
2023/12/10 10:32:44;;;;;;;0.00;0.00;;;;;;;8.86;100.00;98923.56;4913190;29;20067;-79
2023/12/10 10:36:21;;;;;;;0.00;0.00;;;;;;;8.78;100.00;98905.13;4933868;29;20020;-80
2023/12/10 10:39:08;;;;;;;0.00;0.00;;;;;;;8.98;100.00;98922.31;4874394;29;20385;-83
2023/12/10 10:41:54;;;;;;;0.00;0.00;;;;;;;8.79;100.00;98881.41;4863810;29;20099;-80
2023/12/10 10:44:26;;;;;;;0.00;0.00;;;;;;;9.04;100.00;98900.16;4898302;29;20119;-80
2023/12/10 10:47:00;;;;;;;0.00;0.00;;;;;;;8.74;100.00;98852.31;4900629;29;20545;-78
2023/12/10 10:49:27;;;;;;;0.00;0.00;;;;;;;8.96;100.00;98884.44;4898968;29;20028;-79
2023/12/10 10:51:55;;;;;;;0.00;0.00;;;;;;;8.88;100.00;98834.13;4903404;29;20032;-77
2023/12/10 10:54:22;;;;;;;0.00;0.00;;;;;;;8.98;100.00;98851.44;4898418;29;20028;-79
2023/12/10 10:56:51;;;;;;;0.00;0.00;;;;;;;8.99;100.00;98840.22;4898244;29;20039;-76
2023/12/10 11:02:26;;;;;;;0.00;0.00;;;;;;;9.31;100.00;98854.25;4902330;29;20040;-78
2023/12/10 11:04:51;;;;;;;0.00;0.00;;;;;;;8.91;100.00;98791.84;4917252;29;20075;-79
2023/12/10 11:08:00;;;;;;;0.00;0.00;;;;;;;9.17;100.00;98824.16;4915103;29;20111;-78
2023/12/10 11:10:41;;;;;;;;;;;;;;;;;;;;;
2023/12/10 11:13:14;;;;;;;0.00;0.00;;;;;;;9.15;100.00;98823.66;4917920;29;20036;-79
2023/12/10 11:15:55;;;;;;;0.00;0.00;;;;;;;8.90;100.00;98768.41;4922386;29;20501;-77
2023/12/10 11:18:21;;;;;;;0.00;0.00;;;;;;;8.99;100.00;98744.00;4902578;29;20037;-78
2023/12/10 11:20:52;;;;;;;0.00;0.00;;;;;;;9.10;100.00;98748.19;4913318;29;20039;-79
2023/12/10 11:23:19;;;;;;;0.03;0.03;;;;;;;9.08;100.00;98725.84;4869234;29;20032;-78
2023/12/10 11:25:44;;;;;;;0.00;0.00;;;;;;;9.35;100.00;98746.97;4893224;29;20391;-76
2023/12/10 11:28:46;;;;;;;0.00;0.00;;;;;;;9.36;100.00;98759.50;4890640;29;20044;-80
2023/12/10 11:31:14;;;;;;;0.00;0.00;;;;;;;9.31;100.00;98717.88;4906366;29;20485;-79
2023/12/10 11:33:42;;;;;;;0.00;0.00;;;;;;;9.15;100.00;98674.47;4925082;29;20063;-80
2023/12/10 11:36:13;;;;;;;0.00;0.00;;;;;;;9.04;100.00;98657.50;4905227;29;20035;-76
2023/12/10 11:38:45;;;;;;;0.10;0.10;;;;;;;9.37;100.00;98686.66;4910994;29;20045;-76
2023/12/10 11:41:18;;;;;;;0.00;0.00;;;;;;;9.23;100.00;98679.25;4904648;29;20020;-78
2023/12/10 11:43:45;;;;;;;0.00;0.00;;;;;;;9.29;100.00;98660.06;4914600;29;20036;-78
2023/12/10 11:46:20;;;;;;;0.00;0.00;;;;;;;9.48;100.00;98679.91;4900825;29;20034;-78
2023/12/10 11:48:49;;;;;;;0.10;0.10;;;;;;;9.50;100.00;98663.22;4896286;29;21269;-76
2023/12/10 11:51:16;;;;;;;0.00;0.00;;;;;;;9.43;100.00;98639.06;4881975;29;20156;-78
2023/12/10 11:53:55;;;;;;;0.00;0.00;;;;;;;9.38;100.00;98625.53;4883812;29;20043;-80
2023/12/10 11:56:21;;;;;;;0.00;0.00;;;;;;;9.54;100.00;98632.31;4899479;29;21205;-77
2023/12/10 11:58:47;;;;;;;0.00;0.00;;;;;;;9.64;100.00;98653.13;4911917;29;20035;-77
2023/12/10 12:01:21;;;;;;;0.00;0.00;;;;;;;9.41;100.00;98603.09;4896834;29;20447;-76
2023/12/10 12:03:49;;;;;;;0.00;0.00;;;;;;;9.55;100.00;98625.75;4903219;29;20051;-79
2023/12/10 12:06:14;;;;;;;0.00;0.00;;;;;;;9.55;100.00;98633.94;4902709;29;20050;-79
2023/12/10 12:08:40;;;;;;;0.00;0.00;;;;;;;9.65;100.00;98607.53;4881739;29;20044;-78
2023/12/10 12:11:10;;;;;;;0.00;0.00;;;;;;;9.71;100.00;98606.31;4913383;29;20111;-79
2023/12/10 12:13:36;;;;;;;0.00;0.00;;;;;;;9.75;100.00;98596.41;4920457;29;20057;-80
2023/12/10 12:16:02;;;;;;;0.00;0.00;;;;;;;9.78;100.00;98591.16;4923692;29;20032;-79
2023/12/10 12:18:45;;;;;;;0.00;0.00;;;;;;;9.86;100.00;98583.38;4920124;29;21200;-79
2023/12/10 12:21:18;;;;;;;0.00;0.00;;;;;;;9.84;100.00;98556.38;4896049;29;20468;-79
2023/12/10 12:23:53;;;;;;;0.00;0.00;;;;;;;10.09;100.00;98589.66;4905649;29;20080;-79
2023/12/10 12:26:21;;;;;;;0.00;0.00;;;;;;;9.88;100.00;98571.00;4917645;29;20027;-81
2023/12/10 12:29:13;;;;;;;0.00;0.00;;;;;;;10.02;100.00;98581.09;4903262;29;20040;-78
2023/12/10 12:31:39;;;;;;;0.00;0.00;;;;;;;10.01;100.00;98598.59;4907521;29;20578;-78
2023/12/10 12:34:07;;;;;;;0.10;0.10;;;;;;;10.18;100.00;98593.28;4902713;29;21052;-78
2023/12/10 12:36:33;;;;;;;0.00;0.00;;;;;;;10.14;100.00;98549.38;4884375;29;20371;-78